Terminal Aerodrome Forecast
Issued by NWS

Home | Current Version | Previous Version | Text Only | Print | Product List | Glossary On
Versions: 1 2 3 4 5 6 7 8 9 10 11 12
000
FTUS46 KLOX 262300 RRA
TAFSBP
TAF
KSBP 262357Z 2700/2724 27006KT P6SM VCSH SCT080 BKN120
     FM270400 14004KT P6SM -SHRA SCT050 BKN080 OVC120
     FM271400 VRB03KT P6SM VCSH BKN080 BKN120
     FM272000 30010KT P6SM SCT080=

USA.gov is the U.S. government's official web portal to all federal, state and local government web resources and services.